sensor_id;sensor_type;location;lat;lon;timestamp;temperature;humidity
41592;DHT22;28026;48.562;14.440;2022-09-03T00:00:19;11.50;99.90
41592;DHT22;28026;48.562;14.440;2022-09-03T00:03:02;11.60;99.90
41592;DHT22;28026;48.562;14.440;2022-09-03T00:05:50;11.60;99.90
41592;DHT22;28026;48.562;14.440;2022-09-03T00:17:38;11.60;99.90
41592;DHT22;28026;48.562;14.440;2022-09-03T00:23:21;11.40;99.90
41592;DHT22;28026;48.562;14.440;2022-09-03T00:29:01;11.30;99.90
41592;DHT22;28026;48.562;14.440;2022-09-03T00:32:14;11.20;99.90
41592;DHT22;28026;48.562;14.440;2022-09-03T00:35:03;11.30;99.90
41592;DHT22;28026;48.562;14.440;2022-09-03T00:37:43;11.20;99.90
41592;DHT22;28026;48.562;14.440;2022-09-03T00:43:28;11.00;99.90
41592;DHT22;28026;48.562;14.440;2022-09-03T00:46:56;10.80;99.90
41592;DHT22;28026;48.562;14.440;2022-09-03T00:54:59;10.70;99.90
41592;DHT22;28026;48.562;14.440;2022-09-03T00:58:31;10.70;99.90
41592;DHT22;28026;48.562;14.440;2022-09-03T01:08:42;10.50;99.90
41592;DHT22;28026;48.562;14.440;2022-09-03T01:29:39;10.30;99.90
41592;DHT22;28026;48.562;14.440;2022-09-03T01:35:52;10.20;99.90
41592;DHT22;28026;48.562;14.440;2022-09-03T01:38:50;10.20;99.90
41592;DHT22;28026;48.562;14.440;2022-09-03T01:41:54;10.20;99.90
41592;DHT22;28026;48.562;14.440;2022-09-03T01:45:06;10.10;99.90
41592;DHT22;28026;48.562;14.440;2022-09-03T01:51:23;10.10;99.90
41592;DHT22;28026;48.562;14.440;2022-09-03T01:54:25;10.20;99.90
41592;DHT22;28026;48.562;14.440;2022-09-03T02:00:42;10.10;99.90
41592;DHT22;28026;48.562;14.440;2022-09-03T02:03:23;10.10;99.90
41592;DHT22;28026;48.562;14.440;2022-09-03T02:06:03;10.10;99.90
41592;DHT22;28026;48.562;14.440;2022-09-03T02:08:37;10.00;99.90
41592;DHT22;28026;48.562;14.440;2022-09-03T02:11:09;9.90;99.90
41592;DHT22;28026;48.562;14.440;2022-09-03T02:13:54;9.90;99.90
41592;DHT22;28026;48.562;14.440;2022-09-03T02:16:32;9.80;99.90
41592;DHT22;28026;48.562;14.440;2022-09-03T02:19:11;9.70;99.90
41592;DHT22;28026;48.562;14.440;2022-09-03T02:21:51;9.80;99.90
41592;DHT22;28026;48.562;14.440;2022-09-03T02:24:27;9.90;99.90
41592;DHT22;28026;48.562;14.440;2022-09-03T02:26:58;9.90;99.90
41592;DHT22;28026;48.562;14.440;2022-09-03T02:29:29;10.00;99.90
41592;DHT22;28026;48.562;14.440;2022-09-03T02:32:02;10.00;99.90
41592;DHT22;28026;48.562;14.440;2022-09-03T02:34:33;10.00;99.90
41592;DHT22;28026;48.562;14.440;2022-09-03T02:37:12;9.80;99.90
41592;DHT22;28026;48.562;14.440;2022-09-03T02:39:45;9.80;99.90
41592;DHT22;28026;48.562;14.440;2022-09-03T02:42:17;9.80;99.90
41592;DHT22;28026;48.562;14.440;2022-09-03T02:44:54;9.90;99.90
41592;DHT22;28026;48.562;14.440;2022-09-03T02:47:35;9.80;99.90
41592;DHT22;28026;48.562;14.440;2022-09-03T02:50:12;9.70;99.90
41592;DHT22;28026;48.562;14.440;2022-09-03T02:52:43;9.60;99.90
41592;DHT22;28026;48.562;14.440;2022-09-03T02:55:14;9.60;99.90
41592;DHT22;28026;48.562;14.440;2022-09-03T02:57:46;9.60;99.90
41592;DHT22;28026;48.562;14.440;2022-09-03T03:00:17;9.60;99.90
41592;DHT22;28026;48.562;14.440;2022-09-03T03:02:48;9.60;99.90
41592;DHT22;28026;48.562;14.440;2022-09-03T03:05:29;9.60;99.90
41592;DHT22;28026;48.562;14.440;2022-09-03T03:08:11;9.60;99.90
41592;DHT22;28026;48.562;14.440;2022-09-03T03:10:44;9.60;99.90
41592;DHT22;28026;48.562;14.440;2022-09-03T03:13:15;9.40;99.90
41592;DHT22;28026;48.562;14.440;2022-09-03T03:15:46;9.50;99.90
41592;DHT22;28026;48.562;14.440;2022-09-03T03:18:18;9.30;99.90
41592;DHT22;28026;48.562;14.440;2022-09-03T03:20:49;9.40;99.90
41592;DHT22;28026;48.562;14.440;2022-09-03T03:23:21;9.40;99.90
41592;DHT22;28026;48.562;14.440;2022-09-03T03:25:52;9.30;99.90
41592;DHT22;28026;48.562;14.440;2022-09-03T03:28:23;9.20;99.90
41592;DHT22;28026;48.562;14.440;2022-09-03T03:30:53;9.30;99.90
41592;DHT22;28026;48.562;14.440;2022-09-03T03:33:24;9.30;99.90
41592;DHT22;28026;48.562;14.440;2022-09-03T03:35:55;9.20;99.90
41592;DHT22;28026;48.562;14.440;2022-09-03T03:38:26;9.20;99.90
41592;DHT22;28026;48.562;14.440;2022-09-03T03:40:57;9.20;99.90
41592;DHT22;28026;48.562;14.440;2022-09-03T03:43:29;9.20;99.90
41592;DHT22;28026;48.562;14.440;2022-09-03T03:46:00;9.10;99.90
41592;DHT22;28026;48.562;14.440;2022-09-03T03:48:31;9.10;99.90
41592;DHT22;28026;48.562;14.440;2022-09-03T03:51:06;9.10;99.90
41592;DHT22;28026;48.562;14.440;2022-09-03T03:53:39;9.10;99.90
41592;DHT22;28026;48.562;14.440;2022-09-03T03:56:13;9.00;99.90
41592;DHT22;28026;48.562;14.440;2022-09-03T03:58:45;9.00;99.90
41592;DHT22;28026;48.562;14.440;2022-09-03T04:01:20;9.00;99.90
41592;DHT22;28026;48.562;14.440;2022-09-03T04:03:55;9.00;99.90
41592;DHT22;28026;48.562;14.440;2022-09-03T04:06:27;9.00;99.90
41592;DHT22;28026;48.562;14.440;2022-09-03T04:08:58;8.90;99.90
41592;DHT22;28026;48.562;14.440;2022-09-03T04:11:29;9.00;99.90
41592;DHT22;28026;48.562;14.440;2022-09-03T04:14:01;9.00;99.90
41592;DHT22;28026;48.562;14.440;2022-09-03T04:16:33;8.90;99.90
41592;DHT22;28026;48.562;14.440;2022-09-03T04:19:03;8.80;99.90
41592;DHT22;28026;48.562;14.440;2022-09-03T04:21:34;8.90;99.90
41592;DHT22;28026;48.562;14.440;2022-09-03T04:24:06;8.90;99.90
41592;DHT22;28026;48.562;14.440;2022-09-03T04:26:37;8.90;99.90
41592;DHT22;28026;48.562;14.440;2022-09-03T04:29:10;8.90;99.90
41592;DHT22;28026;48.562;14.440;2022-09-03T04:31:41;8.80;99.90
41592;DHT22;28026;48.562;14.440;2022-09-03T04:34:35;8.60;99.90
41592;DHT22;28026;48.562;14.440;2022-09-03T04:37:06;8.40;99.90
41592;DHT22;28026;48.562;14.440;2022-09-03T04:39:37;8.30;99.90
41592;DHT22;28026;48.562;14.440;2022-09-03T04:42:08;8.40;99.90
41592;DHT22;28026;48.562;14.440;2022-09-03T04:44:39;8.30;99.90
41592;DHT22;28026;48.562;14.440;2022-09-03T04:47:10;8.30;99.90
41592;DHT22;28026;48.562;14.440;2022-09-03T04:49:41;8.50;99.90
41592;DHT22;28026;48.562;14.440;2022-09-03T04:52:12;8.60;99.90
41592;DHT22;28026;48.562;14.440;2022-09-03T04:54:43;8.70;99.90
41592;DHT22;28026;48.562;14.440;2022-09-03T04:57:14;8.60;99.90
41592;DHT22;28026;48.562;14.440;2022-09-03T04:59:44;8.60;99.90
41592;DHT22;28026;48.562;14.440;2022-09-03T05:02:15;8.60;99.90
41592;DHT22;28026;48.562;14.440;2022-09-03T05:04:46;8.60;99.90
41592;DHT22;28026;48.562;14.440;2022-09-03T05:07:17;8.80;99.90
41592;DHT22;28026;48.562;14.440;2022-09-03T05:09:50;8.80;99.90
41592;DHT22;28026;48.562;14.440;2022-09-03T05:12:21;8.90;99.90
41592;DHT22;28026;48.562;14.440;2022-09-03T05:14:52;9.00;99.90
41592;DHT22;28026;48.562;14.440;2022-09-03T05:17:23;9.30;99.90
41592;DHT22;28026;48.562;14.440;2022-09-03T05:19:55;9.40;99.90
41592;DHT22;28026;48.562;14.440;2022-09-03T05:22:27;9.30;99.90
41592;DHT22;28026;48.562;14.440;2022-09-03T05:24:58;9.50;99.90
41592;DHT22;28026;48.562;14.440;2022-09-03T05:27:30;9.70;99.90
41592;DHT22;28026;48.562;14.440;2022-09-03T05:30:02;10.00;99.90
41592;DHT22;28026;48.562;14.440;2022-09-03T05:32:33;10.00;99.90
41592;DHT22;28026;48.562;14.440;2022-09-03T05:35:07;9.90;99.90
41592;DHT22;28026;48.562;14.440;2022-09-03T05:37:40;10.10;99.90
41592;DHT22;28026;48.562;14.440;2022-09-03T05:40:11;10.20;99.90
41592;DHT22;28026;48.562;14.440;2022-09-03T05:42:42;10.30;99.90
41592;DHT22;28026;48.562;14.440;2022-09-03T05:45:13;10.40;99.90
41592;DHT22;28026;48.562;14.440;2022-09-03T05:47:44;10.40;99.90
41592;DHT22;28026;48.562;14.440;2022-09-03T05:50:15;10.60;99.90
41592;DHT22;28026;48.562;14.440;2022-09-03T05:52:46;10.70;99.90
41592;DHT22;28026;48.562;14.440;2022-09-03T05:55:17;10.70;99.90
41592;DHT22;28026;48.562;14.440;2022-09-03T05:57:52;11.00;99.90
41592;DHT22;28026;48.562;14.440;2022-09-03T06:00:23;11.30;99.90
41592;DHT22;28026;48.562;14.440;2022-09-03T06:02:53;11.60;99.90
41592;DHT22;28026;48.562;14.440;2022-09-03T06:05:24;11.50;99.90
41592;DHT22;28026;48.562;14.440;2022-09-03T06:07:55;11.30;99.90
41592;DHT22;28026;48.562;14.440;2022-09-03T06:10:26;11.40;99.90
41592;DHT22;28026;48.562;14.440;2022-09-03T06:12:57;11.70;99.90
41592;DHT22;28026;48.562;14.440;2022-09-03T06:15:32;11.80;99.90
41592;DHT22;28026;48.562;14.440;2022-09-03T06:18:04;11.80;99.90
41592;DHT22;28026;48.562;14.440;2022-09-03T06:20:35;11.70;99.90
41592;DHT22;28026;48.562;14.440;2022-09-03T06:23:06;11.70;99.90
41592;DHT22;28026;48.562;14.440;2022-09-03T06:25:37;11.70;99.90
41592;DHT22;28026;48.562;14.440;2022-09-03T06:28:08;12.30;99.90
41592;DHT22;28026;48.562;14.440;2022-09-03T06:30:39;12.30;99.90
41592;DHT22;28026;48.562;14.440;2022-09-03T06:33:11;11.90;99.90
41592;DHT22;28026;48.562;14.440;2022-09-03T06:35:42;12.10;99.90
41592;DHT22;28026;48.562;14.440;2022-09-03T06:38:13;12.90;99.90
41592;DHT22;28026;48.562;14.440;2022-09-03T06:40:51;13.30;99.90
41592;DHT22;28026;48.562;14.440;2022-09-03T06:43:28;13.40;99.90
41592;DHT22;28026;48.562;14.440;2022-09-03T06:46:10;13.50;99.90
41592;DHT22;28026;48.562;14.440;2022-09-03T06:48:44;13.70;99.90
41592;DHT22;28026;48.562;14.440;2022-09-03T06:51:21;14.00;99.90
41592;DHT22;28026;48.562;14.440;2022-09-03T06:54:06;14.20;99.90
41592;DHT22;28026;48.562;14.440;2022-09-03T06:56:40;14.70;99.90
41592;DHT22;28026;48.562;14.440;2022-09-03T06:59:12;14.70;99.90
41592;DHT22;28026;48.562;14.440;2022-09-03T07:01:44;14.90;99.90
41592;DHT22;28026;48.562;14.440;2022-09-03T07:04:15;15.10;99.90
41592;DHT22;28026;48.562;14.440;2022-09-03T07:06:46;15.30;99.90
41592;DHT22;28026;48.562;14.440;2022-09-03T07:09:17;15.30;99.90
41592;DHT22;28026;48.562;14.440;2022-09-03T07:11:48;15.50;99.90
41592;DHT22;28026;48.562;14.440;2022-09-03T07:14:20;15.00;99.90
41592;DHT22;28026;48.562;14.440;2022-09-03T07:16:51;14.60;99.90
41592;DHT22;28026;48.562;14.440;2022-09-03T07:19:22;14.50;99.90
41592;DHT22;28026;48.562;14.440;2022-09-03T07:21:53;14.30;99.90
41592;DHT22;28026;48.562;14.440;2022-09-03T07:24:24;14.20;99.90
41592;DHT22;28026;48.562;14.440;2022-09-03T07:26:57;14.40;99.90
41592;DHT22;28026;48.562;14.440;2022-09-03T07:29:27;14.80;99.90
41592;DHT22;28026;48.562;14.440;2022-09-03T07:31:59;14.70;99.90
41592;DHT22;28026;48.562;14.440;2022-09-03T07:34:29;15.40;99.90
41592;DHT22;28026;48.562;14.440;2022-09-03T07:37:00;16.20;99.90
41592;DHT22;28026;48.562;14.440;2022-09-03T07:39:32;16.60;99.90
41592;DHT22;28026;48.562;14.440;2022-09-03T07:42:03;16.40;99.90
41592;DHT22;28026;48.562;14.440;2022-09-03T07:44:34;16.70;99.90
41592;DHT22;28026;48.562;14.440;2022-09-03T07:47:05;16.90;99.90
41592;DHT22;28026;48.562;14.440;2022-09-03T07:49:36;16.70;99.90
41592;DHT22;28026;48.562;14.440;2022-09-03T07:52:08;16.50;99.90
41592;DHT22;28026;48.562;14.440;2022-09-03T07:54:39;16.90;99.90
41592;DHT22;28026;48.562;14.440;2022-09-03T07:57:11;17.00;99.90
41592;DHT22;28026;48.562;14.440;2022-09-03T07:59:42;17.20;99.90
41592;DHT22;28026;48.562;14.440;2022-09-03T08:02:12;17.20;99.90
41592;DHT22;28026;48.562;14.440;2022-09-03T08:04:43;16.90;99.90
41592;DHT22;28026;48.562;14.440;2022-09-03T08:07:14;17.00;99.90
41592;DHT22;28026;48.562;14.440;2022-09-03T08:09:45;17.30;99.90
41592;DHT22;28026;48.562;14.440;2022-09-03T08:12:16;17.00;99.90
41592;DHT22;28026;48.562;14.440;2022-09-03T08:14:47;17.20;99.90
41592;DHT22;28026;48.562;14.440;2022-09-03T08:17:18;17.20;99.90
41592;DHT22;28026;48.562;14.440;2022-09-03T08:19:49;17.50;99.90
41592;DHT22;28026;48.562;14.440;2022-09-03T08:22:20;18.30;99.90
41592;DHT22;28026;48.562;14.440;2022-09-03T08:24:52;18.70;99.90
41592;DHT22;28026;48.562;14.440;2022-09-03T08:27:23;18.30;99.90
41592;DHT22;28026;48.562;14.440;2022-09-03T08:29:54;18.40;99.90
41592;DHT22;28026;48.562;14.440;2022-09-03T08:32:25;18.90;99.90
41592;DHT22;28026;48.562;14.440;2022-09-03T08:34:56;18.10;99.90
41592;DHT22;28026;48.562;14.440;2022-09-03T08:37:27;18.40;99.90
41592;DHT22;28026;48.562;14.440;2022-09-03T08:39:59;19.10;99.90
41592;DHT22;28026;48.562;14.440;2022-09-03T08:45:39;19.20;99.90
41592;DHT22;28026;48.562;14.440;2022-09-03T08:48:17;19.00;99.90
41592;DHT22;28026;48.562;14.440;2022-09-03T08:50:54;19.90;99.90
41592;DHT22;28026;48.562;14.440;2022-09-03T08:56:30;20.10;99.90
41592;DHT22;28026;48.562;14.440;2022-09-03T08:59:02;20.50;99.90
41592;DHT22;28026;48.562;14.440;2022-09-03T09:04:44;20.40;99.90
41592;DHT22;28026;48.562;14.440;2022-09-03T09:10:48;20.90;99.90
41592;DHT22;28026;48.562;14.440;2022-09-03T09:14:03;21.30;99.90
41592;DHT22;28026;48.562;14.440;2022-09-03T09:20:35;22.50;99.90
41592;DHT22;28026;48.562;14.440;2022-09-03T09:23:32;21.50;99.90
41592;DHT22;28026;48.562;14.440;2022-09-03T09:26:16;20.80;99.90
41592;DHT22;28026;48.562;14.440;2022-09-03T09:29:05;21.60;99.90
41592;DHT22;28026;48.562;14.440;2022-09-03T09:31:40;21.70;99.90
41592;DHT22;28026;48.562;14.440;2022-09-03T09:34:15;22.30;99.90
41592;DHT22;28026;48.562;14.440;2022-09-03T09:36:49;22.90;99.90
41592;DHT22;28026;48.562;14.440;2022-09-03T09:39:25;22.20;99.90
41592;DHT22;28026;48.562;14.440;2022-09-03T09:42:15;21.30;99.90
41592;DHT22;28026;48.562;14.440;2022-09-03T09:44:46;21.50;99.90
41592;DHT22;28026;48.562;14.440;2022-09-03T09:47:27;21.80;99.90
41592;DHT22;28026;48.562;14.440;2022-09-03T09:50:17;22.20;99.90
41592;DHT22;28026;48.562;14.440;2022-09-03T09:53:03;22.50;99.90
41592;DHT22;28026;48.562;14.440;2022-09-03T09:55:52;23.50;99.90
41592;DHT22;28026;48.562;14.440;2022-09-03T09:58:26;23.80;99.90
41592;DHT22;28026;48.562;14.440;2022-09-03T10:01:21;22.80;99.90
41592;DHT22;28026;48.562;14.440;2022-09-03T10:03:55;22.70;99.90
41592;DHT22;28026;48.562;14.440;2022-09-03T10:06:30;22.80;99.90
41592;DHT22;28026;48.562;14.440;2022-09-03T10:09:22;21.70;99.90
41592;DHT22;28026;48.562;14.440;2022-09-03T10:14:41;22.90;99.90
41592;DHT22;28026;48.562;14.440;2022-09-03T10:17:40;22.70;99.90
41592;DHT22;28026;48.562;14.440;2022-09-03T10:20:38;23.70;99.90
41592;DHT22;28026;48.562;14.440;2022-09-03T10:23:26;23.10;99.90
41592;DHT22;28026;48.562;14.440;2022-09-03T10:26:10;22.40;99.90
41592;DHT22;28026;48.562;14.440;2022-09-03T10:28:50;23.20;99.90
41592;DHT22;28026;48.562;14.440;2022-09-03T10:31:54;23.60;99.90
41592;DHT22;28026;48.562;14.440;2022-09-03T10:35:03;24.00;99.90
41592;DHT22;28026;48.562;14.440;2022-09-03T10:38:17;24.60;99.90
41592;DHT22;28026;48.562;14.440;2022-09-03T10:41:23;24.70;99.90
41592;DHT22;28026;48.562;14.440;2022-09-03T10:47:36;25.50;99.90
41592;DHT22;28026;48.562;14.440;2022-09-03T10:51:00;25.90;99.90
41592;DHT22;28026;48.562;14.440;2022-09-03T11:00:14;24.50;99.90
41592;DHT22;28026;48.562;14.440;2022-09-03T11:06:07;24.20;99.90
41592;DHT22;28026;48.562;14.440;2022-09-03T11:09:36;25.10;99.90
41592;DHT22;28026;48.562;14.440;2022-09-03T11:12:23;25.00;99.90
41592;DHT22;28026;48.562;14.440;2022-09-03T11:15:06;24.00;99.90
41592;DHT22;28026;48.562;14.440;2022-09-03T11:21:23;24.60;99.90
41592;DHT22;28026;48.562;14.440;2022-09-03T11:24:25;23.90;99.90
41592;DHT22;28026;48.562;14.440;2022-09-03T11:30:14;24.10;99.90
41592;DHT22;28026;48.562;14.440;2022-09-03T11:33:00;23.70;99.90
41592;DHT22;28026;48.562;14.440;2022-09-03T11:35:41;23.80;99.90
41592;DHT22;28026;48.562;14.440;2022-09-03T11:43:54;25.40;99.90
41592;DHT22;28026;48.562;14.440;2022-09-03T11:49:10;26.60;99.90
41592;DHT22;28026;48.562;14.440;2022-09-03T11:52:03;26.40;99.90
41592;DHT22;28026;48.562;14.440;2022-09-03T11:54:45;25.40;99.90
41592;DHT22;28026;48.562;14.440;2022-09-03T11:57:27;26.30;99.90
41592;DHT22;28026;48.562;14.440;2022-09-03T12:00:10;26.80;99.90
41592;DHT22;28026;48.562;14.440;2022-09-03T12:02:55;27.30;99.90
41592;DHT22;28026;48.562;14.440;2022-09-03T12:19:02;26.70;99.90
41592;DHT22;28026;48.562;14.440;2022-09-03T12:21:41;27.40;99.90
41592;DHT22;28026;48.562;14.440;2022-09-03T12:24:17;27.00;99.90
41592;DHT22;28026;48.562;14.440;2022-09-03T12:26:49;26.10;99.90
41592;DHT22;28026;48.562;14.440;2022-09-03T12:29:25;25.90;99.90
41592;DHT22;28026;48.562;14.440;2022-09-03T12:32:11;25.50;99.90
41592;DHT22;28026;48.562;14.440;2022-09-03T12:34:43;25.50;99.90
41592;DHT22;28026;48.562;14.440;2022-09-03T12:37:25;25.60;99.90
41592;DHT22;28026;48.562;14.440;2022-09-03T12:40:05;25.40;99.90
41592;DHT22;28026;48.562;14.440;2022-09-03T12:42:48;25.50;99.90
41592;DHT22;28026;48.562;14.440;2022-09-03T12:45:25;25.00;99.90
41592;DHT22;28026;48.562;14.440;2022-09-03T12:47:56;25.10;99.90
41592;DHT22;28026;48.562;14.440;2022-09-03T12:50:28;24.90;99.90
41592;DHT22;28026;48.562;14.440;2022-09-03T12:53:00;23.90;99.90
41592;DHT22;28026;48.562;14.440;2022-09-03T12:58:53;23.10;99.90
41592;DHT22;28026;48.562;14.440;2022-09-03T13:01:37;23.10;99.90
41592;DHT22;28026;48.562;14.440;2022-09-03T13:04:27;23.00;99.90
41592;DHT22;28026;48.562;14.440;2022-09-03T13:07:12;22.90;99.90
41592;DHT22;28026;48.562;14.440;2022-09-03T13:10:03;22.90;99.90
41592;DHT22;28026;48.562;14.440;2022-09-03T13:12:46;23.30;99.90
41592;DHT22;28026;48.562;14.440;2022-09-03T13:15:21;23.00;99.90
41592;DHT22;28026;48.562;14.440;2022-09-03T13:18:09;23.00;99.90
41592;DHT22;28026;48.562;14.440;2022-09-03T13:31:30;22.80;99.90
41592;DHT22;28026;48.562;14.440;2022-09-03T13:40:32;22.50;99.90
41592;DHT22;28026;48.562;14.440;2022-09-03T13:46:17;22.80;99.90
41592;DHT22;28026;48.562;14.440;2022-09-03T13:52:38;23.30;99.90
41592;DHT22;28026;48.562;14.440;2022-09-03T13:55:27;22.70;99.90
41592;DHT22;28026;48.562;14.440;2022-09-03T13:58:30;22.40;99.90
41592;DHT22;28026;48.562;14.440;2022-09-03T14:04:27;23.00;99.90
41592;DHT22;28026;48.562;14.440;2022-09-03T14:07:19;21.90;99.90
41592;DHT22;28026;48.562;14.440;2022-09-03T14:10:21;21.30;99.90
41592;DHT22;28026;48.562;14.440;2022-09-03T14:13:38;21.50;99.90
41592;DHT22;28026;48.562;14.440;2022-09-03T14:16:48;21.90;99.90
41592;DHT22;28026;48.562;14.440;2022-09-03T14:22:55;22.10;99.90
41592;DHT22;28026;48.562;14.440;2022-09-03T14:25:51;21.50;99.90
41592;DHT22;28026;48.562;14.440;2022-09-03T14:28:35;21.00;99.90
41592;DHT22;28026;48.562;14.440;2022-09-03T14:41:05;21.50;99.90
41592;DHT22;28026;48.562;14.440;2022-09-03T14:44:47;21.90;99.90
41592;DHT22;28026;48.562;14.440;2022-09-03T14:48:04;22.00;99.90
41592;DHT22;28026;48.562;14.440;2022-09-03T15:12:22;23.00;99.90
41592;DHT22;28026;48.562;14.440;2022-09-03T15:15:23;23.10;99.90
41592;DHT22;28026;48.562;14.440;2022-09-03T15:18:12;23.10;99.90
41592;DHT22;28026;48.562;14.440;2022-09-03T15:27:48;22.80;99.90
41592;DHT22;28026;48.562;14.440;2022-09-03T15:30:22;22.50;99.90
41592;DHT22;28026;48.562;14.440;2022-09-03T15:39:06;22.20;99.90
41592;DHT22;28026;48.562;14.440;2022-09-03T15:41:51;22.20;99.90
41592;DHT22;28026;48.562;14.440;2022-09-03T15:44:41;22.10;99.90
41592;DHT22;28026;48.562;14.440;2022-09-03T15:50:27;22.10;99.90
41592;DHT22;28026;48.562;14.440;2022-09-03T15:56:23;21.70;99.90
41592;DHT22;28026;48.562;14.440;2022-09-03T16:02:04;21.70;99.90
41592;DHT22;28026;48.562;14.440;2022-09-03T16:05:00;21.70;99.90
41592;DHT22;28026;48.562;14.440;2022-09-03T16:08:03;21.80;99.90
41592;DHT22;28026;48.562;14.440;2022-09-03T16:16:59;21.50;99.90
41592;DHT22;28026;48.562;14.440;2022-09-03T16:19:53;21.40;99.90
41592;DHT22;28026;48.562;14.440;2022-09-03T16:28:29;21.30;99.90
41592;DHT22;28026;48.562;14.440;2022-09-03T16:34:28;21.20;99.90
41592;DHT22;28026;48.562;14.440;2022-09-03T16:37:38;21.20;99.90
41592;DHT22;28026;48.562;14.440;2022-09-03T16:40:52;21.10;99.90
41592;DHT22;28026;48.562;14.440;2022-09-03T16:53:12;21.10;99.90
41592;DHT22;28026;48.562;14.440;2022-09-03T16:59:36;20.80;99.90
41592;DHT22;28026;48.562;14.440;2022-09-03T17:25:03;19.70;99.90
41592;DHT22;28026;48.562;14.440;2022-09-03T17:31:33;19.80;99.90
41592;DHT22;28026;48.562;14.440;2022-09-03T17:44:49;19.60;99.90
41592;DHT22;28026;48.562;14.440;2022-09-03T17:57:01;19.60;99.90
41592;DHT22;28026;48.562;14.440;2022-09-03T18:02:51;19.60;99.90
41592;DHT22;28026;48.562;14.440;2022-09-03T18:05:40;19.60;99.90
41592;DHT22;28026;48.562;14.440;2022-09-03T18:08:35;19.50;99.90
41592;DHT22;28026;48.562;14.440;2022-09-03T18:20:24;19.50;99.90
41592;DHT22;28026;48.562;14.440;2022-09-03T18:23:38;19.50;99.90
41592;DHT22;28026;48.562;14.440;2022-09-03T18:26:44;19.30;99.90
41592;DHT22;28026;48.562;14.440;2022-09-03T18:29:47;19.30;99.90
41592;DHT22;28026;48.562;14.440;2022-09-03T18:32:47;19.30;99.90
41592;DHT22;28026;48.562;14.440;2022-09-03T18:35:37;19.20;99.90
41592;DHT22;28026;48.562;14.440;2022-09-03T18:38:30;19.10;99.90
41592;DHT22;28026;48.562;14.440;2022-09-03T18:49:08;19.00;99.90
41592;DHT22;28026;48.562;14.440;2022-09-03T18:55:14;19.00;99.90
41592;DHT22;28026;48.562;14.440;2022-09-03T18:58:56;18.90;99.90
41592;DHT22;28026;48.562;14.440;2022-09-03T19:02:09;18.80;99.90
41592;DHT22;28026;48.562;14.440;2022-09-03T19:09:38;18.40;99.90
41592;DHT22;28026;48.562;14.440;2022-09-03T19:17:05;17.70;99.90
41592;DHT22;28026;48.562;14.440;2022-09-03T19:20:28;17.80;99.90
41592;DHT22;28026;48.562;14.440;2022-09-03T19:23:21;17.60;99.90
41592;DHT22;28026;48.562;14.440;2022-09-03T19:53:16;16.50;99.90
41592;DHT22;28026;48.562;14.440;2022-09-03T19:56:17;16.50;99.90
41592;DHT22;28026;48.562;14.440;2022-09-03T19:59:20;16.60;99.90
41592;DHT22;28026;48.562;14.440;2022-09-03T20:02:14;16.60;99.90
41592;DHT22;28026;48.562;14.440;2022-09-03T20:05:07;16.60;99.90
41592;DHT22;28026;48.562;14.440;2022-09-03T20:08:04;16.60;99.90
41592;DHT22;28026;48.562;14.440;2022-09-03T20:10:55;16.40;99.90
41592;DHT22;28026;48.562;14.440;2022-09-03T20:13:28;16.30;99.90
41592;DHT22;28026;48.562;14.440;2022-09-03T20:19:35;16.10;99.90
41592;DHT22;28026;48.562;14.440;2022-09-03T20:22:27;15.90;99.90
41592;DHT22;28026;48.562;14.440;2022-09-03T20:25:39;15.90;99.90
41592;DHT22;28026;48.562;14.440;2022-09-03T20:28:55;15.80;99.90
41592;DHT22;28026;48.562;14.440;2022-09-03T20:32:10;15.70;99.90
41592;DHT22;28026;48.562;14.440;2022-09-03T20:41:54;15.40;99.90
41592;DHT22;28026;48.562;14.440;2022-09-03T20:51:08;15.10;99.90
41592;DHT22;28026;48.562;14.440;2022-09-03T20:54:11;15.00;99.90
41592;DHT22;28026;48.562;14.440;2022-09-03T21:12:04;15.00;99.90
41592;DHT22;28026;48.562;14.440;2022-09-03T21:18:47;15.30;99.90
41592;DHT22;28026;48.562;14.440;2022-09-03T21:25:04;15.30;99.90
41592;DHT22;28026;48.562;14.440;2022-09-03T21:27:58;15.20;99.90
41592;DHT22;28026;48.562;14.440;2022-09-03T21:30:52;15.30;99.90
41592;DHT22;28026;48.562;14.440;2022-09-03T21:33:47;15.30;99.90
41592;DHT22;28026;48.562;14.440;2022-09-03T21:36:28;15.20;99.90
41592;DHT22;28026;48.562;14.440;2022-09-03T21:39:35;15.20;99.90
41592;DHT22;28026;48.562;14.440;2022-09-03T21:42:48;15.00;99.90
41592;DHT22;28026;48.562;14.440;2022-09-03T21:45:33;15.10;99.90
41592;DHT22;28026;48.562;14.440;2022-09-03T21:48:28;15.00;99.90
41592;DHT22;28026;48.562;14.440;2022-09-03T21:51:34;15.00;99.90
41592;DHT22;28026;48.562;14.440;2022-09-03T21:54:31;15.00;99.90
41592;DHT22;28026;48.562;14.440;2022-09-03T22:00:32;15.00;99.90
41592;DHT22;28026;48.562;14.440;2022-09-03T22:03:05;15.00;99.90
41592;DHT22;28026;48.562;14.440;2022-09-03T22:06:00;15.00;99.90
41592;DHT22;28026;48.562;14.440;2022-09-03T22:08:49;14.90;99.90
41592;DHT22;28026;48.562;14.440;2022-09-03T22:14:52;14.90;99.90
41592;DHT22;28026;48.562;14.440;2022-09-03T22:20:28;14.70;99.90
41592;DHT22;28026;48.562;14.440;2022-09-03T22:23:11;14.80;99.90
41592;DHT22;28026;48.562;14.440;2022-09-03T22:25:58;14.80;99.90
41592;DHT22;28026;48.562;14.440;2022-09-03T22:31:56;14.80;99.90
41592;DHT22;28026;48.562;14.440;2022-09-03T22:34:44;14.90;99.90
41592;DHT22;28026;48.562;14.440;2022-09-03T22:50:39;15.00;99.90
41592;DHT22;28026;48.562;14.440;2022-09-03T22:57:06;14.90;99.90
41592;DHT22;28026;48.562;14.440;2022-09-03T23:00:04;14.90;99.90
41592;DHT22;28026;48.562;14.440;2022-09-03T23:02:40;14.90;99.90
41592;DHT22;28026;48.562;14.440;2022-09-03T23:08:29;14.60;99.90
41592;DHT22;28026;48.562;14.440;2022-09-03T23:11:18;14.70;99.90
41592;DHT22;28026;48.562;14.440;2022-09-03T23:14:03;14.70;99.90
41592;DHT22;28026;48.562;14.440;2022-09-03T23:19:53;14.70;99.90
41592;DHT22;28026;48.562;14.440;2022-09-03T23:22:43;14.80;99.90
41592;DHT22;28026;48.562;14.440;2022-09-03T23:25:35;14.80;99.90
41592;DHT22;28026;48.562;14.440;2022-09-03T23:28:34;14.80;99.90
41592;DHT22;28026;48.562;14.440;2022-09-03T23:33:53;14.90;99.90
